createdAt,value
2019-06-20T00:01:08.623Z,29.73
2019-06-20T00:02:34.680Z,29.73
2019-06-20T00:04:00.465Z,33.57
2019-06-20T00:05:26.817Z,39.93
2019-06-20T00:06:52.488Z,44.07
2019-06-20T00:08:18.638Z,33.67
2019-06-20T00:09:44.160Z,48.47
2019-06-20T00:11:10.407Z,30.43
2019-06-20T00:12:35.902Z,41.10
2019-06-20T00:14:01.980Z,38.87
2019-06-20T00:15:27.580Z,38.40
2019-06-20T00:16:53.793Z,28.40
2019-06-20T00:18:19.290Z,39.47
2019-06-20T00:19:45.393Z,33.23
2019-06-20T00:21:10.888Z,38.77
2019-06-20T00:22:36.949Z,33.10
2019-06-20T00:24:02.699Z,38.53
2019-06-20T00:25:28.825Z,36.00
2019-06-20T00:26:54.293Z,43.37
2019-06-20T00:28:20.371Z,37.53
2019-06-20T00:29:45.840Z,37.70
2019-06-20T00:31:12.036Z,33.03
2019-06-20T00:32:37.473Z,36.03
2019-06-20T00:34:03.522Z,34.33
2019-06-20T00:35:29.023Z,38.50
2019-06-20T00:36:55.109Z,31.60
2019-06-20T00:38:20.599Z,34.13
2019-06-20T00:39:46.773Z,28.47
2019-06-20T00:41:12.235Z,38.80
2019-06-20T00:42:38.273Z,29.10
2019-06-20T00:44:03.729Z,29.83
2019-06-20T00:45:29.884Z,28.57
2019-06-20T00:46:55.359Z,35.07
2019-06-20T00:48:21.397Z,34.60
2019-06-20T00:49:46.863Z,36.23
2019-06-20T00:51:12.920Z,30.07
2019-06-20T00:52:38.403Z,43.00
2019-06-20T00:54:04.539Z,37.70
2019-06-20T00:55:30.188Z,39.87
2019-06-20T00:56:56.287Z,35.83
2019-06-20T00:58:21.785Z,35.77
2019-06-20T00:59:48.036Z,26.20
2019-06-20T01:01:13.534Z,35.70
2019-06-20T01:02:39.588Z,43.07
2019-06-20T01:04:05.035Z,35.70
2019-06-20T01:05:31.194Z,37.20
2019-06-20T01:06:56.750Z,34.00
2019-06-20T01:08:22.828Z,31.30
2019-06-20T01:09:48.295Z,34.73
2019-06-20T01:11:14.582Z,36.10
2019-06-20T01:12:40.063Z,43.07
2019-06-20T01:14:06.543Z,37.73
2019-06-20T01:15:32.092Z,35.60
2019-06-20T01:16:58.217Z,38.87
2019-06-20T01:18:23.768Z,27.53
2019-06-20T01:19:49.944Z,34.73
2019-06-20T01:21:17.017Z,29.57
2019-06-20T01:22:43.044Z,28.17
2019-06-20T01:24:08.648Z,36.07
2019-06-20T01:25:39.483Z,40.17
2019-06-20T01:27:05.055Z,28.50
2019-06-20T01:28:31.340Z,38.53
2019-06-20T01:29:57.305Z,36.73
2019-06-20T01:31:23.406Z,46.13
2019-06-20T01:32:48.884Z,39.83
2019-06-20T01:34:14.971Z,32.90
2019-06-20T01:35:40.425Z,35.50
2019-06-20T01:37:06.696Z,38.97
2019-06-20T01:38:32.196Z,28.77
2019-06-20T01:39:58.236Z,39.33
2019-06-20T01:41:23.916Z,37.27
2019-06-20T01:42:50.009Z,38.10
2019-06-20T01:44:15.491Z,40.57
2019-06-20T01:45:41.613Z,35.07
2019-06-20T01:47:07.219Z,34.10
2019-06-20T01:48:33.263Z,32.43
2019-06-20T01:49:58.746Z,35.47
2019-06-20T01:51:24.894Z,32.07
2019-06-20T01:52:50.374Z,42.47
2019-06-20T01:54:16.429Z,34.33
2019-06-20T01:55:42.572Z,34.70
2019-06-20T01:57:08.671Z,38.13
2019-06-20T01:58:34.163Z,33.43
2019-06-20T02:00:00.196Z,39.27
2019-06-20T02:01:28.679Z,45.03
2019-06-20T02:02:54.783Z,38.57
2019-06-20T02:04:20.364Z,44.48
2019-06-20T02:05:46.857Z,56.67
2019-06-20T02:07:12.644Z,32.10
2019-06-20T02:08:38.898Z,36.20
2019-06-20T02:10:05.114Z,30.80
2019-06-20T02:11:31.149Z,40.80
2019-06-20T02:12:56.744Z,31.53
2019-06-20T02:14:22.785Z,31.47
2019-06-20T02:15:48.400Z,35.43
2019-06-20T02:17:14.492Z,43.20
2019-06-20T02:18:40.092Z,42.00
2019-06-20T02:20:07.870Z,34.27
2019-06-20T02:21:33.328Z,34.53
2019-06-20T02:22:59.514Z,34.23
2019-06-20T02:24:25.112Z,32.97
2019-06-20T02:25:51.462Z,35.70
2019-06-20T02:27:16.903Z,41.03
2019-06-20T02:28:43.019Z,46.53
2019-06-20T02:30:08.689Z,44.17
2019-06-20T02:31:34.740Z,38.27
2019-06-20T02:33:00.254Z,28.53
2019-06-20T02:34:26.296Z,41.03
2019-06-20T02:35:51.881Z,33.93
2019-06-20T02:37:17.909Z,30.23
2019-06-20T02:38:43.433Z,34.23
2019-06-20T02:40:09.716Z,42.33
2019-06-20T02:41:35.612Z,39.90
2019-06-20T02:43:01.751Z,31.23
2019-06-20T02:44:30.456Z,36.03
2019-06-20T02:45:55.224Z,50.77
2019-06-20T02:47:20.688Z,30.20
2019-06-20T02:48:46.741Z,38.93
2019-06-20T02:50:13.215Z,31.17
2019-06-20T02:51:39.683Z,33.20
2019-06-20T02:53:05.739Z,50.87
2019-06-20T02:54:31.784Z,44.37
2019-06-20T02:55:57.364Z,33.10
2019-06-20T02:57:23.697Z,41.50
2019-06-20T02:58:49.204Z,33.07
2019-06-20T03:00:15.845Z,41.97
2019-06-20T03:01:41.328Z,23.97
2019-06-20T03:03:07.565Z,34.97
2019-06-20T03:04:33.093Z,35.73
2019-06-20T03:05:59.605Z,29.27
2019-06-20T03:07:25.188Z,43.93
2019-06-20T03:08:51.307Z,36.97
2019-06-20T03:10:16.978Z,31.63
2019-06-20T03:11:43.123Z,35.87
2019-06-20T03:13:09.540Z,37.20
2019-06-20T03:14:44.888Z,34.63
2019-06-20T03:16:03.098Z,31.30
2019-06-20T03:17:29.174Z,38.93
2019-06-20T03:18:54.657Z,33.73
2019-06-20T03:20:20.800Z,38.67
2019-06-20T03:21:46.360Z,28.03
2019-06-20T03:23:15.184Z,35.83
2019-06-20T03:24:40.668Z,27.43
2019-06-20T03:26:06.946Z,39.60
2019-06-20T03:27:32.459Z,35.47
2019-06-20T03:28:58.534Z,27.33
2019-06-20T03:30:24.097Z,33.90
2019-06-20T03:31:50.150Z,33.90
2019-06-20T03:33:15.910Z,44.30
2019-06-20T03:34:42.151Z,42.90
2019-06-20T03:36:07.913Z,40.20
2019-06-20T03:37:33.949Z,31.43
2019-06-20T03:38:59.568Z,30.50
2019-06-20T03:40:25.851Z,39.47
2019-06-20T03:41:51.319Z,30.43
2019-06-20T03:43:17.458Z,31.07
2019-06-20T03:44:43.022Z,30.87
2019-06-20T03:46:09.052Z,37.40
2019-06-20T03:47:34.774Z,48.73
2019-06-20T03:49:00.935Z,31.23
2019-06-20T03:50:26.579Z,36.37
2019-06-20T03:51:52.784Z,38.70
2019-06-20T03:53:18.266Z,36.47
2019-06-20T03:54:44.391Z,31.23
2019-06-20T03:56:09.956Z,23.83
2019-06-20T03:57:36.125Z,47.33
2019-06-20T03:59:04.220Z,32.47
2019-06-20T04:00:33.903Z,36.77
2019-06-20T04:01:59.379Z,40.47
2019-06-20T04:03:25.474Z,44.63
2019-06-20T04:04:50.998Z,44.60
2019-06-20T04:06:17.220Z,36.23
2019-06-20T04:07:42.699Z,32.43
2019-06-20T04:09:08.842Z,43.13
2019-06-20T04:10:34.871Z,34.67
2019-06-20T04:12:01.038Z,33.50
2019-06-20T04:13:26.716Z,33.43
2019-06-20T04:14:52.828Z,39.10
2019-06-20T04:16:18.467Z,40.10
2019-06-20T04:17:44.536Z,44.60
2019-06-20T04:19:10.022Z,31.70
2019-06-20T04:20:36.299Z,43.93
2019-06-20T04:22:01.799Z,41.30
2019-06-20T04:23:27.834Z,30.97
2019-06-20T04:24:53.370Z,38.40
2019-06-20T04:26:19.456Z,31.90
2019-06-20T04:27:44.977Z,35.50
2019-06-20T04:29:10.965Z,51.50
2019-06-20T04:30:36.506Z,44.47
2019-06-20T04:32:02.544Z,32.40
2019-06-20T04:33:28.109Z,37.50
2019-06-20T04:34:54.200Z,32.33
2019-06-20T04:36:19.862Z,41.73
2019-06-20T04:37:45.911Z,39.03
2019-06-20T04:39:19.360Z,32.00
2019-06-20T04:40:39.124Z,38.07
2019-06-20T04:42:04.783Z,49.07
2019-06-20T04:43:30.856Z,42.53
2019-06-20T04:44:57.881Z,34.67
2019-06-20T04:46:35.416Z,36.50
2019-06-20T04:48:00.915Z,41.80
2019-06-20T04:49:27.012Z,31.20
2019-06-20T04:50:52.531Z,39.33
2019-06-20T04:52:18.573Z,38.80
2019-06-20T04:53:44.153Z,35.77
2019-06-20T04:55:10.459Z,36.77
2019-06-20T04:56:36.065Z,46.60
2019-06-20T04:58:02.164Z,35.60
2019-06-20T04:59:27.619Z,41.27
2019-06-20T05:00:53.805Z,30.87
2019-06-20T05:02:20.898Z,43.67
2019-06-20T05:03:46.976Z,36.10
2019-06-20T05:05:12.591Z,47.83
2019-06-20T05:06:38.720Z,37.17
2019-06-20T05:08:04.404Z,39.73
2019-06-20T05:09:30.473Z,41.60
2019-06-20T05:10:56.056Z,44.90
2019-06-20T05:12:22.590Z,44.07
2019-06-20T05:13:48.073Z,44.00
2019-06-20T05:15:15.670Z,37.17
2019-06-20T05:16:41.176Z,50.07
2019-06-20T05:18:07.336Z,37.13
2019-06-20T05:19:32.816Z,38.83
2019-06-20T05:20:58.982Z,42.00
2019-06-20T05:22:24.491Z,51.83
2019-06-20T05:23:50.559Z,47.07
2019-06-20T05:25:16.237Z,44.50
2019-06-20T05:26:42.348Z,46.83
2019-06-20T05:28:07.884Z,46.30
2019-06-20T05:29:34.060Z,45.03
2019-06-20T05:30:59.543Z,43.57
2019-06-20T05:32:25.639Z,42.70
2019-06-20T05:33:51.120Z,45.63
2019-06-20T05:35:17.299Z,47.03
2019-06-20T05:36:42.827Z,35.40
2019-06-20T05:38:08.898Z,39.73
2019-06-20T05:39:34.423Z,45.83
2019-06-20T05:41:00.623Z,41.97
2019-06-20T05:42:26.560Z,49.83
2019-06-20T05:43:52.644Z,57.27
2019-06-20T05:45:18.745Z,38.70
2019-06-20T05:46:44.935Z,37.17
2019-06-20T05:48:10.439Z,45.07
2019-06-20T05:49:37.116Z,41.73
2019-06-20T05:51:02.789Z,50.63
2019-06-20T05:52:29.147Z,43.07
2019-06-20T05:53:54.756Z,59.30
2019-06-20T05:55:20.976Z,46.83
2019-06-20T05:56:46.490Z,41.83
2019-06-20T05:58:12.584Z,52.13
2019-06-20T05:59:38.170Z,46.57
2019-06-20T06:01:04.351Z,52.03
2019-06-20T06:02:29.889Z,44.23
2019-06-20T06:03:56.053Z,50.80
2019-06-20T06:05:21.898Z,40.00
2019-06-20T06:06:48.218Z,42.03
2019-06-20T06:08:13.679Z,50.83
2019-06-20T06:09:39.740Z,42.50
2019-06-20T06:11:06.242Z,44.83
2019-06-20T06:12:32.485Z,44.27
2019-06-20T06:13:57.981Z,43.93
2019-06-20T06:15:24.877Z,44.80
2019-06-20T06:16:50.504Z,42.67
2019-06-20T06:18:16.578Z,49.17
2019-06-20T06:19:42.084Z,55.87
2019-06-20T06:21:10.245Z,43.83
2019-06-20T06:22:35.929Z,47.77
2019-06-20T06:24:02.179Z,53.37
2019-06-20T06:25:27.733Z,42.67
2019-06-20T06:26:53.925Z,57.10
2019-06-20T06:28:19.419Z,40.07
2019-06-20T06:29:45.509Z,50.67
2019-06-20T06:31:11.103Z,43.67
2019-06-20T06:32:40.342Z,43.80
2019-06-20T06:34:04.660Z,52.80
2019-06-20T06:35:30.948Z,46.67
2019-06-20T06:36:56.577Z,46.67
2019-06-20T06:38:22.677Z,54.20
2019-06-20T06:39:48.248Z,39.10
2019-06-20T06:41:14.320Z,43.27
2019-06-20T06:42:40.140Z,46.53
2019-06-20T06:44:08.451Z,38.80
2019-06-20T06:45:34.155Z,45.87
2019-06-20T06:47:01.763Z,42.87
2019-06-20T06:48:27.345Z,44.23
2019-06-20T06:49:53.451Z,69.30
2019-06-20T06:51:19.162Z,45.73
2019-06-20T06:52:45.211Z,49.70
2019-06-20T06:54:10.709Z,43.77
2019-06-20T06:55:38.112Z,43.10
2019-06-20T06:57:03.699Z,43.60
2019-06-20T06:58:29.808Z,45.53
2019-06-20T06:59:55.286Z,46.77
2019-06-20T07:01:21.493Z,48.23
2019-06-20T07:02:46.983Z,59.83
2019-06-20T07:04:13.183Z,49.47
2019-06-20T07:05:38.799Z,60.60
2019-06-20T07:07:04.858Z,51.00
2019-06-20T07:08:30.435Z,45.63
2019-06-20T07:09:56.609Z,40.40
2019-06-20T07:11:22.192Z,46.80
2019-06-20T07:12:48.381Z,47.87
2019-06-20T07:14:13.907Z,47.23
2019-06-20T07:15:39.989Z,47.40
2019-06-20T07:17:05.720Z,45.17
2019-06-20T07:18:31.935Z,47.90
2019-06-20T07:19:57.522Z,41.53
2019-06-20T07:21:23.604Z,40.10
2019-06-20T07:22:49.189Z,49.40
2019-06-20T07:24:15.279Z,47.70
2019-06-20T07:25:40.736Z,54.83
2019-06-20T07:27:06.899Z,58.63
2019-06-20T07:28:32.436Z,45.97
2019-06-20T07:29:58.535Z,46.17
2019-06-20T07:31:24.028Z,55.90
2019-06-20T07:32:50.099Z,49.70
2019-06-20T07:34:15.730Z,50.80
2019-06-20T07:35:42.037Z,48.13
2019-06-20T07:37:07.662Z,41.70
2019-06-20T07:38:33.723Z,42.00
2019-06-20T07:39:59.259Z,44.80
2019-06-20T07:41:25.425Z,49.20
2019-06-20T07:42:50.919Z,41.50
2019-06-20T07:44:16.997Z,47.87
2019-06-20T07:45:42.478Z,34.73
2019-06-20T07:47:17.447Z,42.87
2019-06-20T07:48:35.619Z,35.80
2019-06-20T07:50:01.695Z,49.60
2019-06-20T07:51:27.192Z,53.67
2019-06-20T07:53:01.818Z,46.20
2019-06-20T07:54:20.391Z,46.07
2019-06-20T07:55:46.596Z,56.37
2019-06-20T07:57:12.082Z,40.60
2019-06-20T07:58:38.152Z,48.80
2019-06-20T08:00:03.752Z,47.80
2019-06-20T08:01:29.949Z,60.37
2019-06-20T08:02:55.468Z,50.47
2019-06-20T08:04:21.635Z,49.77
2019-06-20T08:05:47.277Z,43.83
2019-06-20T08:07:13.313Z,52.33
2019-06-20T08:08:38.870Z,57.63
2019-06-20T08:10:05.787Z,51.03
2019-06-20T08:11:31.295Z,45.10
2019-06-20T08:12:57.434Z,54.10
2019-06-20T08:14:22.879Z,41.10
2019-06-20T08:15:49.053Z,55.20
2019-06-20T08:17:14.639Z,57.63
2019-06-20T08:18:40.677Z,67.07
2019-06-20T08:20:09.130Z,46.93
2019-06-20T08:21:35.314Z,55.03
2019-06-20T08:23:00.811Z,49.13
2019-06-20T08:24:26.865Z,50.27
2019-06-20T08:25:52.544Z,55.77
2019-06-20T08:27:19.688Z,59.70
2019-06-20T08:28:45.779Z,53.23
2019-06-20T08:30:12.107Z,41.93
2019-06-20T08:31:38.491Z,54.53
2019-06-20T08:33:11.228Z,57.62
2019-06-20T08:34:33.892Z,53.63
2019-06-20T08:36:00.502Z,50.67
2019-06-20T08:37:26.822Z,56.00
2019-06-20T08:38:52.613Z,55.70
2019-06-20T08:40:21.144Z,54.13
2019-06-20T08:41:46.744Z,51.93
2019-06-20T08:43:13.443Z,66.43
2019-06-20T08:44:39.129Z,59.77
2019-06-20T08:46:10.095Z,52.43
2019-06-20T08:47:32.724Z,70.33
2019-06-20T08:48:59.516Z,58.57
2019-06-20T08:50:26.168Z,63.90
2019-06-20T08:51:52.723Z,78.47
2019-06-20T08:53:18.475Z,57.00
2019-06-20T08:54:44.572Z,56.57
2019-06-20T08:56:10.207Z,55.77
2019-06-20T08:57:36.493Z,59.93
2019-06-20T08:59:02.622Z,60.93
2019-06-20T09:00:29.976Z,59.40
2019-06-20T09:01:58.044Z,59.30
2019-06-20T09:03:23.101Z,49.30
2019-06-20T09:04:48.783Z,61.40
2019-06-20T09:06:14.994Z,61.97
2019-06-20T09:07:41.827Z,59.70
2019-06-20T09:09:09.885Z,72.80
2019-06-20T09:10:38.679Z,63.07
2019-06-20T09:12:05.170Z,67.67
2019-06-20T09:13:30.818Z,57.23
2019-06-20T09:14:57.232Z,61.83
2019-06-20T09:16:24.708Z,59.50
2019-06-20T09:17:52.938Z,67.00
2019-06-20T09:19:17.823Z,55.90
2019-06-20T09:20:44.099Z,60.47
2019-06-20T09:22:09.655Z,56.00
2019-06-20T09:23:35.858Z,63.30
2019-06-20T09:25:02.940Z,54.17
2019-06-20T09:26:29.176Z,47.10
2019-06-20T09:27:55.930Z,53.83
2019-06-20T09:29:22.237Z,56.03
2019-06-20T09:30:47.841Z,51.83
2019-06-20T09:32:14.261Z,53.70
2019-06-20T09:33:39.736Z,47.77
2019-06-20T09:35:06.733Z,50.50
2019-06-20T09:36:32.405Z,67.03
2019-06-20T09:37:59.346Z,38.30
2019-06-20T09:39:24.969Z,43.67
2019-06-20T09:40:51.924Z,39.83
2019-06-20T09:42:18.240Z,47.27
2019-06-20T09:43:44.337Z,49.27
2019-06-20T09:45:10.464Z,47.47
2019-06-20T09:46:36.567Z,47.37
2019-06-20T09:48:02.668Z,55.00
2019-06-20T09:49:28.988Z,49.53
2019-06-20T09:50:54.554Z,43.80
2019-06-20T09:52:20.676Z,49.67
2019-06-20T09:53:48.398Z,40.93
2019-06-20T09:55:14.998Z,43.97
2019-06-20T09:56:40.615Z,38.67
2019-06-20T09:58:07.127Z,41.97
2019-06-20T09:59:32.791Z,49.30
2019-06-20T10:00:59.103Z,49.37
2019-06-20T10:02:24.629Z,37.63
2019-06-20T10:03:50.671Z,49.03
2019-06-20T10:05:16.259Z,44.10
2019-06-20T10:06:42.424Z,40.80
2019-06-20T10:08:08.156Z,47.30
2019-06-20T10:09:34.182Z,50.50
2019-06-20T10:10:59.684Z,35.00
2019-06-20T10:12:25.751Z,32.60
2019-06-20T10:13:52.225Z,41.13
2019-06-20T10:15:24.115Z,31.37
2019-06-20T10:16:51.285Z,28.10
2019-06-20T10:18:17.319Z,30.70
2019-06-20T10:19:42.804Z,40.57
2019-06-20T10:21:08.982Z,37.70
2019-06-20T10:22:34.455Z,33.53
2019-06-20T10:24:00.571Z,28.20
2019-06-20T10:25:26.273Z,35.20
2019-06-20T10:26:53.324Z,36.10
2019-06-20T10:28:20.142Z,30.03
2019-06-20T10:29:47.478Z,38.97
2019-06-20T10:31:13.385Z,48.03
2019-06-20T10:32:39.472Z,32.60
2019-06-20T10:34:05.226Z,27.23
2019-06-20T10:35:31.322Z,31.53
2019-06-20T10:36:57.116Z,33.77
2019-06-20T10:38:23.386Z,49.73
2019-06-20T10:39:49.954Z,35.13
2019-06-20T10:41:16.192Z,43.87
2019-06-20T10:42:41.851Z,38.13
2019-06-20T10:44:08.220Z,35.80
2019-06-20T10:45:34.718Z,36.90
2019-06-20T10:47:00.868Z,35.57
2019-06-20T10:48:26.405Z,34.27
2019-06-20T10:49:52.491Z,30.67
2019-06-20T10:51:55.157Z,41.30
2019-06-20T10:53:20.741Z,35.37
2019-06-20T10:54:47.097Z,44.33
2019-06-20T10:56:12.821Z,31.10
2019-06-20T10:57:41.246Z,29.80
2019-06-20T10:59:06.400Z,34.77
2019-06-20T11:00:33.856Z,29.60
2019-06-20T11:01:59.324Z,27.53
2019-06-20T11:03:25.387Z,31.83
2019-06-20T11:04:50.904Z,46.50
2019-06-20T11:06:16.968Z,33.23
2019-06-20T11:07:43.792Z,31.10
2019-06-20T11:09:10.904Z,35.53
2019-06-20T11:10:37.013Z,37.07
2019-06-20T11:12:03.084Z,29.23
2019-06-20T11:13:28.568Z,31.23
2019-06-20T11:14:54.762Z,47.40
2019-06-20T11:16:20.438Z,33.53
2019-06-20T11:17:46.712Z,32.17
2019-06-20T11:19:12.453Z,34.37
2019-06-20T11:20:39.482Z,30.87
2019-06-20T11:22:05.822Z,29.37
2019-06-20T11:23:31.871Z,35.37
2019-06-20T11:24:57.389Z,22.00
2019-06-20T11:26:23.511Z,36.30
2019-06-20T11:27:49.126Z,27.23
2019-06-20T11:29:15.323Z,25.70
2019-06-20T11:30:52.650Z,43.30
2019-06-20T11:32:08.679Z,39.30
2019-06-20T11:33:36.578Z,38.63
2019-06-20T11:35:02.110Z,28.97
2019-06-20T11:36:27.584Z,38.40
2019-06-20T11:37:54.083Z,30.03
2019-06-20T11:39:19.668Z,25.87
2019-06-20T11:40:45.156Z,26.73
2019-06-20T11:42:10.662Z,41.03
2019-06-20T11:43:38.126Z,35.13
2019-06-20T11:45:04.255Z,40.33
2019-06-20T11:46:30.406Z,32.63
2019-06-20T11:47:55.991Z,33.47
2019-06-20T11:49:22.072Z,31.63
2019-06-20T11:50:47.696Z,23.67
2019-06-20T11:52:13.827Z,30.13
2019-06-20T11:53:40.603Z,29.57
2019-06-20T11:55:08.101Z,33.70
2019-06-20T11:56:33.690Z,26.80
2019-06-20T11:57:59.735Z,43.53
2019-06-20T11:59:25.259Z,39.47
2019-06-20T12:01:03.068Z,29.93
2019-06-20T12:02:18.604Z,39.77
2019-06-20T12:03:44.704Z,29.18
2019-06-20T12:05:10.317Z,50.73
2019-06-20T12:06:36.349Z,33.53
2019-06-20T12:08:01.911Z,41.73
2019-06-20T12:09:27.985Z,25.77
2019-06-20T12:10:53.513Z,29.23
2019-06-20T12:12:19.568Z,41.40
2019-06-20T12:13:46.406Z,35.20
2019-06-20T12:15:13.492Z,29.87
2019-06-20T12:16:40.507Z,24.00
2019-06-20T12:18:07.073Z,34.60
2019-06-20T12:19:32.630Z,33.70
2019-06-20T12:20:58.732Z,41.37
2019-06-20T12:22:26.380Z,35.07
2019-06-20T12:23:52.403Z,36.63
2019-06-20T12:25:18.570Z,35.33
2019-06-20T12:26:44.671Z,38.17
2019-06-20T12:28:10.160Z,39.27
2019-06-20T12:29:36.204Z,25.10
2019-06-20T12:31:01.894Z,24.37
2019-06-20T12:32:28.019Z,37.20
2019-06-20T12:33:53.479Z,32.67
2019-06-20T12:35:20.481Z,29.00
2019-06-20T12:36:46.630Z,36.63
2019-06-20T12:38:15.166Z,33.60
2019-06-20T12:39:40.409Z,34.70
2019-06-20T12:41:06.814Z,33.93
2019-06-20T12:42:32.326Z,33.90
2019-06-20T12:43:58.396Z,32.00
2019-06-20T12:45:23.955Z,37.73
2019-06-20T12:46:50.024Z,29.53
2019-06-20T12:48:15.586Z,37.10
2019-06-20T12:49:41.815Z,31.77
2019-06-20T12:51:07.434Z,49.97
2019-06-20T12:52:33.561Z,36.43
2019-06-20T12:53:59.064Z,30.60
2019-06-20T12:55:25.105Z,32.80
2019-06-20T12:56:50.749Z,25.53
2019-06-20T12:58:16.827Z,26.60
2019-06-20T12:59:42.712Z,19.30
2019-06-20T13:01:09.265Z,27.40
2019-06-20T13:02:36.381Z,24.77
2019-06-20T13:04:02.473Z,19.23
2019-06-20T13:05:28.153Z,26.33
2019-06-20T13:06:54.355Z,13.20
2019-06-20T13:08:19.865Z,19.17
2019-06-20T13:09:46.342Z,24.83
2019-06-20T13:11:11.983Z,25.33
2019-06-20T13:12:38.168Z,17.90
2019-06-20T13:14:03.885Z,27.20
2019-06-20T13:15:30.037Z,22.20
2019-06-20T13:16:55.636Z,23.27
2019-06-20T13:18:21.872Z,34.97
2019-06-20T13:19:48.539Z,20.17
2019-06-20T13:21:14.775Z,28.00
2019-06-20T13:22:41.369Z,32.57
2019-06-20T13:24:08.035Z,23.83
2019-06-20T13:25:33.590Z,23.10
2019-06-20T13:26:59.673Z,21.63
2019-06-20T13:28:25.147Z,35.47
2019-06-20T13:29:51.256Z,27.23
2019-06-20T13:31:16.698Z,25.07
2019-06-20T13:32:43.829Z,25.83
2019-06-20T13:34:10.530Z,22.70
2019-06-20T13:35:36.586Z,22.43
2019-06-20T13:37:02.340Z,20.70
2019-06-20T13:38:36.515Z,20.33
2019-06-20T13:40:00.448Z,18.53
2019-06-20T13:41:26.644Z,22.50
2019-06-20T13:42:54.624Z,22.10
2019-06-20T13:44:20.007Z,12.37
2019-06-20T13:45:47.174Z,18.70
2019-06-20T13:47:13.293Z,24.43
2019-06-20T13:48:38.922Z,18.13
2019-06-20T13:50:07.453Z,21.10
2019-06-20T13:51:33.063Z,25.53
2019-06-20T13:52:59.228Z,17.37
2019-06-20T13:54:24.771Z,19.10
2019-06-20T13:55:50.932Z,27.60
2019-06-20T13:57:16.426Z,27.43
2019-06-20T13:58:42.488Z,28.63
2019-06-20T14:00:08.893Z,36.07
2019-06-20T14:01:34.973Z,29.17
2019-06-20T14:03:00.501Z,28.13
2019-06-20T14:04:26.605Z,16.73
2019-06-20T14:05:53.614Z,24.53
2019-06-20T14:07:20.008Z,22.53
2019-06-20T14:08:46.019Z,21.63
2019-06-20T14:10:12.859Z,17.90
2019-06-20T14:11:38.327Z,23.27
2019-06-20T14:13:18.345Z,26.13
2019-06-20T14:14:31.664Z,33.40
2019-06-20T14:15:57.762Z,17.83
2019-06-20T14:17:23.274Z,31.40
2019-06-20T14:18:50.301Z,27.37
2019-06-20T14:20:16.583Z,24.53
2019-06-20T14:21:43.770Z,16.43
2019-06-20T14:23:09.613Z,15.73
2019-06-20T14:24:35.726Z,28.17
2019-06-20T14:26:01.335Z,23.77
2019-06-20T14:27:27.437Z,30.33
2019-06-20T14:28:52.906Z,20.87
2019-06-20T14:30:19.359Z,16.93
2019-06-20T14:31:45.549Z,15.90
2019-06-20T14:33:11.712Z,23.57
2019-06-20T14:34:37.219Z,28.10
2019-06-20T14:36:03.377Z,20.73
2019-06-20T14:37:28.852Z,14.23
2019-06-20T14:38:55.171Z,23.83
2019-06-20T14:40:20.999Z,23.07
2019-06-20T14:41:47.028Z,25.10
2019-06-20T14:43:12.606Z,23.10
2019-06-20T14:44:38.785Z,24.23
2019-06-20T14:46:04.420Z,26.80
2019-06-20T14:47:30.574Z,12.93
2019-06-20T14:48:56.073Z,22.63
2019-06-20T14:50:22.916Z,15.27
2019-06-20T14:51:48.569Z,27.70
2019-06-20T14:53:15.175Z,18.17
2019-06-20T14:54:40.689Z,16.97
2019-06-20T14:56:06.896Z,16.07
2019-06-20T14:57:32.375Z,25.50
2019-06-20T14:59:00.273Z,22.67
2019-06-20T15:00:26.622Z,17.27
2019-06-20T15:01:53.321Z,14.63
2019-06-20T15:03:19.069Z,22.67
2019-06-20T15:04:46.236Z,16.50
2019-06-20T15:06:12.177Z,22.90
2019-06-20T15:07:38.339Z,16.93
2019-06-20T15:09:06.093Z,20.43
2019-06-20T15:10:32.121Z,19.20
2019-06-20T15:11:57.605Z,16.93
2019-06-20T15:13:23.674Z,21.53
2019-06-20T15:14:49.797Z,17.80
2019-06-20T15:16:16.875Z,16.73
2019-06-20T15:17:43.321Z,21.50
2019-06-20T15:19:09.940Z,19.47
2019-06-20T15:20:35.540Z,28.03
2019-06-20T15:22:02.018Z,17.70
2019-06-20T15:23:27.532Z,18.93
2019-06-20T15:24:55.281Z,27.30
2019-06-20T15:26:20.889Z,11.93
2019-06-20T15:27:47.952Z,18.57
2019-06-20T15:29:14.178Z,16.80
2019-06-20T15:30:40.279Z,25.27
2019-06-20T15:32:05.912Z,15.73
2019-06-20T15:33:31.960Z,21.73
2019-06-20T15:35:03.330Z,25.47
2019-06-20T15:36:29.387Z,27.33
2019-06-20T15:37:55.596Z,18.90
2019-06-20T15:39:21.913Z,10.87
2019-06-20T15:40:49.361Z,14.40
2019-06-20T15:42:15.635Z,20.53
2019-06-20T15:43:41.246Z,18.47
2019-06-20T15:45:08.003Z,17.23
2019-06-20T15:46:33.452Z,14.13
2019-06-20T15:47:59.585Z,19.87
2019-06-20T15:49:25.160Z,16.63
2019-06-20T15:50:51.253Z,20.70
2019-06-20T15:52:16.744Z,22.40
2019-06-20T15:53:42.792Z,17.60
2019-06-20T15:55:08.485Z,13.77
2019-06-20T15:56:34.616Z,25.27
2019-06-20T15:58:00.246Z,17.93
2019-06-20T15:59:26.301Z,30.60
2019-06-20T16:00:51.785Z,135.37
2019-06-20T16:02:17.848Z,53.63
2019-06-20T16:03:43.445Z,91.97
2019-06-20T16:05:10.048Z,110.77
2019-06-20T16:06:35.654Z,98.47
2019-06-20T16:08:01.707Z,38.07
2019-06-20T16:09:27.248Z,29.83
2019-06-20T16:10:53.340Z,43.13
2019-06-20T16:12:18.946Z,34.77
2019-06-20T16:13:45.087Z,40.97
2019-06-20T16:15:11.590Z,20.73
2019-06-20T16:16:37.672Z,40.33
2019-06-20T16:18:03.621Z,35.30
2019-06-20T16:19:29.703Z,23.00
2019-06-20T16:20:55.182Z,35.80
2019-06-20T16:22:21.275Z,17.87
2019-06-20T16:23:47.561Z,18.63
2019-06-20T16:25:14.033Z,19.87
2019-06-20T16:26:39.681Z,18.63
2019-06-20T16:28:06.514Z,18.93
2019-06-20T16:29:31.991Z,34.20
2019-06-20T16:31:08.444Z,16.43
2019-06-20T16:32:25.180Z,22.80
2019-06-20T16:33:51.293Z,22.90
2019-06-20T16:35:18.126Z,12.00
2019-06-20T16:36:44.981Z,17.73
2019-06-20T16:38:10.479Z,20.60
2019-06-20T16:39:36.533Z,31.47
2019-06-20T16:41:02.055Z,23.37
2019-06-20T16:42:28.151Z,16.50
2019-06-20T16:43:53.719Z,18.73
2019-06-20T16:45:20.404Z,11.00
2019-06-20T16:46:46.108Z,26.80
2019-06-20T16:48:12.381Z,17.47
2019-06-20T16:49:38.053Z,18.13
2019-06-20T16:51:04.143Z,14.17
2019-06-20T16:52:29.600Z,26.57
2019-06-20T16:53:55.672Z,14.60
2019-06-20T16:55:21.217Z,9.13
2019-06-20T16:56:47.312Z,18.70
2019-06-20T16:58:12.826Z,10.80
2019-06-20T16:59:38.868Z,9.95
2019-06-20T17:01:04.428Z,13.37
2019-06-20T17:02:30.479Z,21.40
2019-06-20T17:03:56.006Z,8.00
2019-06-20T17:05:22.452Z,14.87
2019-06-20T17:06:47.960Z,15.90
2019-06-20T17:08:14.149Z,15.73
2019-06-20T17:09:39.599Z,9.77
2019-06-20T17:11:05.921Z,13.37
2019-06-20T17:12:31.601Z,21.73
2019-06-20T17:13:57.678Z,23.10
2019-06-20T17:15:23.473Z,19.77
2019-06-20T17:16:49.548Z,10.57
2019-06-20T17:18:15.506Z,26.07
2019-06-20T17:19:42.317Z,26.67
2019-06-20T17:21:07.825Z,11.23
2019-06-20T17:22:33.949Z,11.50
2019-06-20T17:23:59.564Z,20.07
2019-06-20T17:25:25.706Z,35.20
2019-06-20T17:26:51.192Z,16.93
2019-06-20T17:28:17.435Z,9.77
2019-06-20T17:29:42.867Z,7.43
2019-06-20T17:31:08.940Z,12.23
2019-06-20T17:32:34.470Z,18.50
2019-06-20T17:34:00.505Z,11.53
2019-06-20T17:35:26.156Z,12.27
2019-06-20T17:36:52.239Z,10.90
2019-06-20T17:38:17.822Z,11.87
2019-06-20T17:39:43.973Z,15.13
2019-06-20T17:41:09.449Z,4.97
2019-06-20T17:42:35.722Z,11.40
2019-06-20T17:44:01.186Z,65.87
2019-06-20T17:45:28.753Z,59.37
2019-06-20T17:46:54.412Z,42.77
2019-06-20T17:48:20.625Z,57.47
2019-06-20T17:49:46.072Z,30.63
2019-06-20T17:51:12.343Z,30.70
2019-06-20T17:52:37.930Z,16.07
2019-06-20T17:54:03.976Z,30.53
2019-06-20T17:55:29.473Z,17.43
2019-06-20T17:56:55.671Z,26.63
2019-06-20T17:58:21.179Z,31.27
2019-06-20T17:59:47.332Z,24.17
2019-06-20T18:01:12.817Z,14.93
2019-06-20T18:02:38.930Z,20.40
2019-06-20T18:04:13.337Z,12.90
2019-06-20T18:05:32.293Z,20.63
2019-06-20T18:06:57.853Z,17.40
2019-06-20T18:08:23.976Z,18.55
2019-06-20T18:09:52.700Z,28.03
2019-06-20T18:11:17.231Z,16.70
2019-06-20T18:12:42.714Z,32.03
2019-06-20T18:14:08.921Z,16.80
2019-06-20T18:15:34.386Z,15.33
2019-06-20T18:17:00.537Z,14.77
2019-06-20T18:18:26.136Z,23.23
2019-06-20T18:19:52.185Z,25.20
2019-06-20T18:21:17.647Z,23.37
2019-06-20T18:22:43.730Z,22.40
2019-06-20T18:24:09.393Z,19.63
2019-06-20T18:25:35.524Z,27.40
2019-06-20T18:27:01.024Z,19.13
2019-06-20T18:28:27.101Z,8.60
2019-06-20T18:29:52.574Z,19.43